Aérodrome :
LOGIN :

S'inscrire | Disclaimer

   EN    FR    IT 

 










Légende :    VFR   VFR Marginal   IFR   IFR Intensif   IFR Très Intensif
Visi : 
Plafond : 
>= 8 km
>= 3000ft
5 à 8 km
1000 à 3000 ft
1500m à 5 km
500 à 1000 ft
800 à 1500m
200 à 500 ft
< 800m
< 200 ft
Symboles :   Orages  Brouillard  Fortes neiges  Fortes précipitations  Vent > 20 kt
SIGMETs :   Divers  Orages  Givrage  Turbulence  Onde Orograph.  Cendres Volcan.






- Altitude de l'aérodrome : 5600 ft
- Code IATA : SMV


LSZS - Samedan

DERNIER METAR :
  • 110750Z 21001KT CAVOK M16/M18 Q1016 RMK C TL170

METARs EXPIRÉS :
  • 110720Z VRB01KT CAVOK M18/M20 Q1016 RMK B TL170
  • 110650Z 20002KT CAVOK M18/M21 Q1016 RMK A TL170
  • 110620Z AUTO VRB02KT CAVOK M17/M20 Q1017
  • 110550Z AUTO VRB01KT CAVOK M19/M21 Q1017
  • 110520Z AUTO VRB01KT CAVOK M20/M23 Q1017 RESN

TAF TAF LSZS
Valide du 11 à 06h jusqu'au 11 à 15h UTC


110525Z 1106/1115 VRB03KT CAVOK TXM02/1113Z
BECMG 1113/1115 9999 SCT090
ATIS : +41 81 834 93 24



MET'MAP, la Météo Aéronautique d'un coup d'oeil ! - Copyright ORBIFLY Décembre 2007 - Disclaimer

ORBIFLY MET'MAP TEAM :

Programmation & Développement : Alexandra Zaïnal
Sur une idée originale de : Baudouin d'Aumeries
Assistance à la programmation : Marc-Olivier Méhu
Soutien technique & logistique : Manuel Goepfert

Contact : metmap@orbifly.com




SOURCES & CREDITS :

   NOAA